Pagrindinis puslapis
METAR-TAF:

METAR-TAF

Oro uostai :

Inukjuak, Kvebekas, Kanada

platuma: 58-28N, ilguma: 078-05W, Aukštis: 25 m

Dabartinis oras

Ataskaita buvo paskelbta 1 valandą ir 10 minutes, ne 06:00 UTC
Vėjas 9 kt iš Rytų/Šiaurės Rytų
Temperatūra -30°C
Drėgmė 75%
Slėgis 1022 hPa
Matomumas: 14.5 km
Giedras dangus

METAR: CYPH 280600Z AUTO 06009KT 9SM CLR M30/M33 A3018 RMK SLP227

Laikas: 02:10 (07:10 UTC)

Prognozė

Ataskaita buvo paskelbta 1 valandą ir 32 minutes, ne 05:38 UTC
Prognozė galioja nuo 28 metu 06 UTC su 28 metu 18 UTC
Vėjas 12 kt iš Šiaurės Rytų
Matomumas: 10 km
Giedras dangus
Nuo 28 metu 1100 UTC
Vėjas 12 kt iš Rytų/Šiaurės Rytų su gūsio iki 22 kt
Matomumas: 10 km
Su prošvaistėmis ne aukštis 16000 ft

TAF: CYPH 280538Z 2806/2818 04012KT P6SM SKC FM281100 06012G22KT P6SM BKN160 RMK FCST BASED ON AUTO OBS. NXT FCST BY 281200Z

Orai ataskaitas ir orų prognozės (METAR, TAF).

turimą stotys yra geltonos ir raudonos taškus žemėlapyje.

Perkelti pele per norėdami pamatyti stoties vardą.

Tada spustelėkite, norėdami matyti oro stebėjimo ir prognozės.

Norėdami pakeisti žemėlapį: spustelėkite ant žalios mygtukų su juodo kryžiaus žemyn,; žalią mygtuką su brūkšneliu, jei norite nutolinti; arba žalių rodyklių gretimoms žemėlapius.


METAR-TAF: